createdAt,value
2022-12-01T00:01:26.193Z,101155.09
2022-12-01T00:03:54.658Z,101154.81
2022-12-01T00:06:25.287Z,101155.44
2022-12-01T00:09:16.489Z,101148.47
2022-12-01T00:11:48.315Z,101151.75
2022-12-01T00:14:16.500Z,101141.47
2022-12-01T00:16:44.673Z,101153.09
2022-12-01T00:19:12.357Z,101143.66
2022-12-01T00:21:39.852Z,101138.78
2022-12-01T00:24:07.692Z,101141.53
2022-12-01T00:26:37.732Z,101137.75
2022-12-01T00:29:05.195Z,101136.91
2022-12-01T00:31:32.856Z,101145.63
2022-12-01T00:34:00.265Z,101148.03
2022-12-01T00:36:27.658Z,101139.13
2022-12-01T00:38:56.426Z,101146.13
2022-12-01T00:41:25.463Z,101144.00
2022-12-01T00:43:53.109Z,101149.69
2022-12-01T00:46:21.020Z,101148.88
2022-12-01T00:48:49.611Z,101155.38
2022-12-01T00:51:17.032Z,101149.47
2022-12-01T00:53:44.332Z,101155.44
2022-12-01T00:56:11.710Z,101154.88
2022-12-01T00:58:39.036Z,101155.47
2022-12-01T01:01:06.541Z,101158.13
2022-12-01T01:03:34.848Z,101168.63
2022-12-01T01:06:11.330Z,101171.31
2022-12-01T01:08:39.301Z,101166.22
2022-12-01T01:11:07.872Z,101171.31
2022-12-01T01:13:36.606Z,101168.31
2022-12-01T01:16:13.687Z,101172.63
2022-12-01T01:18:41.271Z,101175.34
2022-12-01T01:21:11.647Z,101176.66
2022-12-01T01:23:39.201Z,101179.09
2022-12-01T01:26:27.603Z,101173.72
2022-12-01T01:29:01.238Z,101172.44
2022-12-01T01:31:30.695Z,101175.97
2022-12-01T01:33:58.494Z,101172.19
2022-12-01T01:36:26.530Z,101169.75
2022-12-01T01:38:55.211Z,101175.47
2022-12-01T01:41:23.535Z,101170.34
2022-12-01T01:43:59.624Z,101170.81
2022-12-01T01:46:28.457Z,101177.59
2022-12-01T01:49:08.882Z,101165.97
2022-12-01T01:51:46.974Z,101169.75
2022-12-01T01:54:25.671Z,101174.56
2022-12-01T01:56:54.420Z,101157.84
2022-12-01T01:59:28.350Z,101163.25
2022-12-01T02:02:08.515Z,101166.75
2022-12-01T02:04:40.314Z,101170.56
2022-12-01T02:07:08.979Z,101157.88
2022-12-01T02:09:36.597Z,101152.53
2022-12-01T02:12:45.259Z,101156.88
2022-12-01T02:15:43.606Z,101163.59
2022-12-01T02:18:29.379Z,101162.50
2022-12-01T02:21:51.009Z,101155.72
2022-12-01T02:24:42.852Z,101158.38
2022-12-01T02:27:31.824Z,101158.38
2022-12-01T02:30:00.329Z,101156.53
2022-12-01T02:33:06.149Z,101153.53
2022-12-01T02:36:28.585Z,101153.81
2022-12-01T02:39:20.518Z,101152.56
2022-12-01T02:41:59.078Z,101139.13
2022-12-01T02:44:29.226Z,101152.56
2022-12-01T02:47:01.777Z,101155.22
2022-12-01T02:49:35.385Z,101161.97
2022-12-01T02:52:06.506Z,101144.16
2022-12-01T02:54:34.857Z,101145.16
2022-12-01T02:57:02.345Z,101148.47
2022-12-01T02:59:29.686Z,101150.06
2022-12-01T03:02:18.833Z,101151.94
2022-12-01T03:05:04.750Z,101151.38
2022-12-01T03:07:59.937Z,101147.84
2022-12-01T03:10:48.762Z,101145.66
2022-12-01T03:13:54.577Z,101144.88
2022-12-01T03:16:51.089Z,101152.97
2022-12-01T03:19:36.812Z,101131.56
2022-12-01T03:22:26.107Z,101142.91
2022-12-01T03:24:55.871Z,101140.56
2022-12-01T03:27:29.916Z,101136.16
2022-12-01T03:30:00.028Z,101137.50
2022-12-01T03:32:33.212Z,101139.41
2022-12-01T03:35:23.594Z,101126.50
2022-12-01T03:38:11.989Z,101137.56
2022-12-01T03:40:40.413Z,101132.09
2022-12-01T03:43:12.224Z,101127.25
2022-12-01T03:46:01.231Z,101131.28
2022-12-01T03:48:30.637Z,101136.75
2022-12-01T03:50:57.878Z,101144.63
2022-12-01T03:53:31.756Z,101130.81
2022-12-01T03:56:06.069Z,101134.56
2022-12-01T03:58:39.227Z,101137.06
2022-12-01T04:01:07.816Z,101134.94
2022-12-01T04:03:35.240Z,101136.00
2022-12-01T04:06:02.850Z,101143.81
2022-12-01T04:08:30.830Z,101137.34
2022-12-01T04:10:58.185Z,101138.16
2022-12-01T04:13:26.552Z,101139.53
2022-12-01T04:15:55.745Z,101144.41
2022-12-01T04:18:23.211Z,101123.63
2022-12-01T04:20:51.708Z,101144.72
2022-12-01T04:23:37.529Z,101139.69
2022-12-01T04:26:05.397Z,101147.69
2022-12-01T04:28:32.864Z,101140.47
2022-12-01T04:31:00.335Z,101141.56
2022-12-01T04:33:29.513Z,101137.47
2022-12-01T04:35:58.946Z,101132.63
2022-12-01T04:38:30.541Z,101131.06
2022-12-01T04:40:58.368Z,101139.63
2022-12-01T04:43:25.722Z,101140.47
2022-12-01T04:45:53.044Z,101145.13
2022-12-01T04:48:20.408Z,101148.34
2022-12-01T04:50:49.289Z,101130.00
2022-12-01T04:53:16.713Z,101138.94
2022-12-01T04:55:44.053Z,101137.00
2022-12-01T04:58:11.440Z,101132.97
2022-12-01T05:00:38.978Z,101135.97
2022-12-01T05:03:09.637Z,101138.31
2022-12-01T05:05:40.971Z,101133.78
2022-12-01T05:08:08.436Z,101138.66
2022-12-01T05:10:37.553Z,101144.50
2022-12-01T05:13:06.050Z,101150.53
2022-12-01T05:15:33.426Z,101139.22
2022-12-01T05:18:00.978Z,101147.03
2022-12-01T05:20:46.796Z,101145.69
2022-12-01T05:23:16.965Z,101145.97
2022-12-01T05:25:44.674Z,101150.00
2022-12-01T05:28:12.104Z,101146.72
2022-12-01T05:30:39.626Z,101145.34
2022-12-01T05:33:07.155Z,101148.34
2022-12-01T05:35:34.778Z,101147.19
2022-12-01T05:38:07.542Z,101148.00
2022-12-01T05:40:36.582Z,101146.09
2022-12-01T05:43:04.661Z,101155.84
2022-12-01T05:45:32.190Z,101153.63
2022-12-01T05:48:01.341Z,101155.81
2022-12-01T05:50:30.145Z,101154.75
2022-12-01T05:52:58.563Z,101149.34
2022-12-01T05:55:27.060Z,101146.66
2022-12-01T05:57:54.565Z,101159.03
2022-12-01T06:00:22.180Z,101159.84
2022-12-01T06:02:49.582Z,101153.88
2022-12-01T06:05:16.972Z,101154.47
2022-12-01T06:07:44.317Z,101141.53
2022-12-01T06:10:12.288Z,101151.50
2022-12-01T06:12:58.210Z,101154.19
2022-12-01T06:15:26.785Z,101160.63
2022-12-01T06:17:54.420Z,101159.84
2022-12-01T06:20:23.356Z,101161.97
2022-12-01T06:22:50.763Z,101153.66
2022-12-01T06:25:18.183Z,101155.00
2022-12-01T06:27:45.593Z,101165.75
2022-12-01T06:30:13.410Z,101167.91
2022-12-01T06:32:40.729Z,101155.22
2022-12-01T06:35:08.501Z,101163.34
2022-12-01T06:37:38.142Z,101159.03
2022-12-01T06:40:08.601Z,101160.41
2022-12-01T06:42:35.942Z,101165.25
2022-12-01T06:45:03.356Z,101167.34
2022-12-01T06:47:31.003Z,101172.47
2022-12-01T06:49:58.618Z,101165.50
2022-12-01T06:52:25.973Z,101170.34
2022-12-01T06:54:53.305Z,101170.81
2022-12-01T06:57:21.004Z,101171.06
2022-12-01T06:59:49.057Z,101171.06
2022-12-01T07:02:17.141Z,101178.09
2022-12-01T07:04:44.596Z,101176.38
2022-12-01T07:07:13.981Z,101177.19
2022-12-01T07:09:41.439Z,101186.91
2022-12-01T07:12:08.809Z,101178.00
2022-12-01T07:14:36.367Z,101184.97
2022-12-01T07:17:03.875Z,101186.81
2022-12-01T07:19:31.353Z,101183.59
2022-12-01T07:22:00.123Z,101190.88
2022-12-01T07:24:27.593Z,101176.75
2022-12-01T07:26:54.978Z,101185.50
2022-12-01T07:29:22.376Z,101187.97
2022-12-01T07:31:49.746Z,101193.84
2022-12-01T07:34:17.216Z,101186.00
2022-12-01T07:36:44.535Z,101192.44
2022-12-01T07:39:11.887Z,101192.13
2022-12-01T07:41:39.415Z,101199.06
2022-12-01T07:44:06.898Z,101181.00
2022-12-01T07:46:34.431Z,101202.47
2022-12-01T07:49:06.955Z,101204.78
2022-12-01T07:51:35.069Z,101202.22
2022-12-01T07:54:04.371Z,101198.22
2022-12-01T07:56:31.880Z,101199.88
2022-12-01T07:58:59.301Z,101202.13
2022-12-01T08:01:26.828Z,101206.63
2022-12-01T08:03:57.313Z,101211.69
2022-12-01T08:06:26.071Z,101201.44
2022-12-01T08:08:53.490Z,101211.06
2022-12-01T08:11:27.910Z,101216.63
2022-12-01T08:13:55.838Z,101207.88
2022-12-01T08:16:24.487Z,101208.06
2022-12-01T08:18:52.732Z,101215.22
2022-12-01T08:21:21.766Z,101209.13
2022-12-01T08:23:53.754Z,101200.44
2022-12-01T08:26:22.067Z,101211.88
2022-12-01T08:28:49.721Z,101203.09
2022-12-01T08:31:29.517Z,101208.00
2022-12-01T08:33:57.617Z,101200.53
2022-12-01T08:36:25.664Z,101202.84
2022-12-01T08:38:55.086Z,101210.78
2022-12-01T08:41:24.193Z,101206.19
2022-12-01T08:44:00.286Z,101207.47
2022-12-01T08:46:33.000Z,101204.09
2022-12-01T08:49:01.476Z,101208.41
2022-12-01T08:51:29.313Z,101198.97
2022-12-01T08:53:58.386Z,101213.94
2022-12-01T08:56:27.528Z,101213.78
2022-12-01T08:58:55.485Z,101209.34
2022-12-01T09:01:23.178Z,101213.22
2022-12-01T09:04:05.321Z,101210.25
2022-12-01T09:06:37.752Z,101206.88
2022-12-01T09:09:05.212Z,101221.38
2022-12-01T09:11:32.485Z,101210.94
2022-12-01T09:14:00.686Z,101209.66
2022-12-01T09:16:28.213Z,101214.59
2022-12-01T09:18:57.128Z,101215.66
2022-12-01T09:21:32.907Z,101204.63
2022-12-01T09:24:01.944Z,101206.81
2022-12-01T09:26:29.921Z,101204.09
2022-12-01T09:29:00.438Z,101204.34
2022-12-01T09:31:28.642Z,101202.28
2022-12-01T09:33:58.402Z,101191.13
2022-12-01T09:36:26.568Z,101196.13
2022-12-01T09:38:53.939Z,101198.06
2022-12-01T09:41:41.971Z,101192.63
2022-12-01T09:44:31.018Z,101201.34
2022-12-01T09:47:30.757Z,101192.53
2022-12-01T09:50:11.144Z,101195.34
2022-12-01T09:52:52.597Z,101189.03
2022-12-01T09:55:23.159Z,101179.31
2022-12-01T09:57:54.347Z,101191.34
2022-12-01T10:00:24.735Z,101182.16
2022-12-01T10:03:05.904Z,101176.66
2022-12-01T10:06:10.396Z,101168.84
2022-12-01T10:08:39.041Z,101168.03
2022-12-01T10:11:29.770Z,101163.75
2022-12-01T10:13:58.832Z,101159.91
2022-12-01T10:16:35.172Z,101163.03
2022-12-01T10:19:13.120Z,101154.03
2022-12-01T10:21:40.445Z,101140.72
2022-12-01T10:24:16.941Z,101157.09
2022-12-01T10:27:14.026Z,101146.25
2022-12-01T10:29:55.622Z,101141.22
2022-12-01T10:33:05.489Z,101146.75
2022-12-01T10:35:37.735Z,101147.09
2022-12-01T10:38:13.353Z,101142.78
2022-12-01T10:40:42.734Z,101139.56
2022-12-01T10:43:10.910Z,101138.94
2022-12-01T10:45:44.030Z,101136.56
2022-12-01T10:48:15.685Z,101137.06
2022-12-01T10:50:51.903Z,101132.03
2022-12-01T10:53:25.023Z,101129.16
2022-12-01T10:56:18.221Z,101138.59
2022-12-01T10:58:48.120Z,101128.91
2022-12-01T11:01:36.010Z,101129.59
2022-12-01T11:04:08.405Z,101133.75
2022-12-01T11:06:37.517Z,101126.88
2022-12-01T11:09:21.503Z,101124.78
2022-12-01T11:12:02.892Z,101123.84
2022-12-01T11:14:43.622Z,101132.22
2022-12-01T11:17:19.631Z,101120.88
2022-12-01T11:19:47.351Z,101120.19
2022-12-01T11:22:26.731Z,101114.38
2022-12-01T11:24:53.976Z,101116.66
2022-12-01T11:27:34.715Z,101120.69
2022-12-01T11:30:20.164Z,101116.75
2022-12-01T11:32:57.008Z,101123.69
2022-12-01T11:35:28.605Z,101113.28
2022-12-01T11:38:28.443Z,101114.56
2022-12-01T11:40:51.366Z,101114.56
2022-12-01T11:43:24.778Z,101111.31
2022-12-01T11:45:56.037Z,101099.16
2022-12-01T11:48:34.091Z,101098.38
2022-12-01T11:51:30.032Z,101091.34
2022-12-01T11:54:20.370Z,101092.78
2022-12-01T11:56:56.102Z,101092.28
2022-12-01T11:59:36.300Z,101087.22
2022-12-01T12:02:48.685Z,101086.53
2022-12-01T12:05:42.458Z,101085.25
2022-12-01T12:08:26.736Z,101080.31
2022-12-01T12:10:57.200Z,101074.66
2022-12-01T12:13:50.005Z,101079.50
2022-12-01T12:16:50.572Z,101070.66
2022-12-01T12:20:06.281Z,101073.50
2022-12-01T12:22:34.432Z,101074.19
2022-12-01T12:25:29.436Z,101073.56
2022-12-01T12:28:08.878Z,101065.03
2022-12-01T12:31:11.404Z,101068.22
2022-12-01T12:33:41.727Z,101065.69
2022-12-01T12:36:36.563Z,101067.28
2022-12-01T12:39:03.858Z,101063.75
2022-12-01T12:41:43.309Z,101063.88
2022-12-01T12:44:39.287Z,101056.84
2022-12-01T12:47:18.407Z,101058.63
2022-12-01T12:50:23.043Z,101044.78
2022-12-01T12:52:57.266Z,101048.78
2022-12-01T12:55:38.637Z,101050.53
2022-12-01T12:58:35.589Z,101046.56
2022-12-01T13:01:15.892Z,101047.81
2022-12-01T13:04:03.810Z,101042.38
2022-12-01T13:06:52.934Z,101042.03
2022-12-01T13:09:49.288Z,101040.47
2022-12-01T13:12:26.153Z,101041.41
2022-12-01T13:15:01.266Z,101037.44
2022-12-01T13:17:41.855Z,101036.16
2022-12-01T13:20:19.281Z,101038.69
2022-12-01T13:22:48.125Z,101024.91
2022-12-01T13:25:27.597Z,101027.81
2022-12-01T13:27:59.001Z,101030.50
2022-12-01T13:30:26.961Z,101026.50
2022-12-01T13:33:04.117Z,101017.34
2022-12-01T13:35:35.021Z,101023.16
2022-12-01T13:38:22.811Z,101019.59
2022-12-01T13:41:11.231Z,101022.00
2022-12-01T13:43:52.358Z,101014.47
2022-12-01T13:46:25.829Z,101014.47
2022-12-01T13:48:56.960Z,101012.22
2022-12-01T13:51:25.870Z,101020.56
2022-12-01T13:54:06.262Z,101015.56
2022-12-01T13:56:45.327Z,101009.47
2022-12-01T13:59:41.670Z,101009.97
2022-12-01T14:02:17.568Z,101010.91
2022-12-01T14:04:45.233Z,101015.25
2022-12-01T14:07:34.116Z,101012.84
2022-12-01T14:10:15.287Z,101011.06
2022-12-01T14:12:45.855Z,101012.47
2022-12-01T14:15:32.185Z,101013.13
2022-12-01T14:18:04.043Z,101014.97
2022-12-01T14:20:46.349Z,101014.97
2022-12-01T14:23:21.719Z,101016.72
2022-12-01T14:26:17.087Z,101012.69
2022-12-01T14:29:02.441Z,101025.16
2022-12-01T14:31:32.614Z,101013.47
2022-12-01T14:34:15.824Z,101020.19
2022-12-01T14:36:52.374Z,101024.50
2022-12-01T14:39:22.301Z,101022.59
2022-12-01T14:41:53.392Z,101011.53
2022-12-01T14:44:20.790Z,101019.19
2022-12-01T14:46:54.757Z,101019.34
2022-12-01T14:49:25.528Z,101021.75
2022-12-01T14:52:07.445Z,101021.91
2022-12-01T14:54:47.616Z,101022.03
2022-12-01T14:57:20.580Z,101019.47
2022-12-01T15:00:02.470Z,101032.09
2022-12-01T15:02:30.188Z,101030.47
2022-12-01T15:05:20.534Z,101039.66
2022-12-01T15:07:50.845Z,101030.75
2022-12-01T15:10:19.515Z,101030.44
2022-12-01T15:12:48.140Z,101033.97
2022-12-01T15:15:24.428Z,101040.63
2022-12-01T15:17:53.652Z,101042.16
2022-12-01T15:20:47.553Z,101039.66
2022-12-01T15:23:17.138Z,101043.81
2022-12-01T15:25:46.511Z,101040.75
2022-12-01T15:28:19.766Z,101047.84
2022-12-01T15:30:50.683Z,101046.25
2022-12-01T15:33:36.987Z,101043.66
2022-12-01T15:36:08.358Z,101048.97
2022-12-01T15:38:37.753Z,101049.41
2022-12-01T15:43:57.917Z,101051.59
2022-12-01T15:46:30.892Z,101050.19
2022-12-01T15:49:09.522Z,101060.75
2022-12-01T15:51:37.208Z,101050.63
2022-12-01T15:54:04.668Z,101058.00
2022-12-01T15:56:36.532Z,101056.06
2022-12-01T15:59:27.613Z,101059.03
2022-12-01T16:01:56.847Z,101059.41
2022-12-01T16:04:32.363Z,101065.66
2022-12-01T16:07:04.374Z,101068.31
2022-12-01T16:09:34.807Z,101068.09
2022-12-01T16:12:17.659Z,101062.34
2022-12-01T16:15:13.413Z,101065.97
2022-12-01T16:17:48.255Z,101065.00
2022-12-01T16:20:26.354Z,101066.91
2022-12-01T16:23:00.769Z,101066.72
2022-12-01T16:25:44.221Z,101063.19
2022-12-01T16:28:24.156Z,101076.16
2022-12-01T16:30:52.855Z,101065.97
2022-12-01T16:33:24.345Z,101066.72
2022-12-01T16:35:52.769Z,101065.81
2022-12-01T16:38:25.608Z,101069.94
2022-12-01T16:40:58.350Z,101067.00
2022-12-01T16:43:27.900Z,101069.53
2022-12-01T16:46:09.306Z,101066.50
2022-12-01T16:48:37.720Z,101069.44
2022-12-01T16:51:10.094Z,101075.47
2022-12-01T16:53:37.956Z,101071.47
2022-12-01T16:56:05.706Z,101073.75
2022-12-01T16:58:33.012Z,101077.00
2022-12-01T17:01:00.659Z,101077.19
2022-12-01T17:03:30.912Z,101084.94
2022-12-01T17:06:03.289Z,101084.81
2022-12-01T17:08:30.657Z,101077.59
2022-12-01T17:10:58.053Z,101086.91
2022-12-01T17:13:25.533Z,101088.44
2022-12-01T17:15:57.913Z,101085.09
2022-12-01T17:18:25.408Z,101084.13
2022-12-01T17:21:00.313Z,101089.81
2022-12-01T17:23:28.189Z,101076.97
2022-12-01T17:25:55.626Z,101085.28
2022-12-01T17:28:23.116Z,101087.28
2022-12-01T17:30:52.597Z,101094.50
2022-12-01T17:33:22.470Z,101091.28
2022-12-01T17:35:50.016Z,101084.41
2022-12-01T17:38:17.410Z,101090.72
2022-12-01T17:40:44.928Z,101086.75
2022-12-01T17:43:12.266Z,101095.38
2022-12-01T17:45:41.998Z,101097.38
2022-12-01T17:48:09.535Z,101087.94
2022-12-01T17:50:37.901Z,101094.16
2022-12-01T17:53:05.296Z,101093.53
2022-12-01T17:55:32.657Z,101099.16
2022-12-01T17:58:00.053Z,101096.44
2022-12-01T18:00:32.366Z,101103.91
2022-12-01T18:03:02.183Z,101101.56
2022-12-01T18:05:29.790Z,101114.09
2022-12-01T18:07:59.135Z,101114.19
2022-12-01T18:10:26.501Z,101119.94
2022-12-01T18:12:53.947Z,101120.88
2022-12-01T18:15:21.448Z,101121.13
2022-12-01T18:17:48.856Z,101120.97
2022-12-01T18:20:16.269Z,101124.25
2022-12-01T18:22:43.603Z,101126.16
2022-12-01T18:25:10.995Z,101128.56
2022-12-01T18:27:38.418Z,101125.78
2022-12-01T18:30:06.566Z,101126.66
2022-12-01T18:32:33.912Z,101111.44
2022-12-01T18:35:01.215Z,101131.06
2022-12-01T18:37:28.597Z,101131.41
2022-12-01T18:39:56.507Z,101134.06
2022-12-01T18:42:24.521Z,101118.63
2022-12-01T18:44:52.113Z,101134.41
2022-12-01T18:47:19.643Z,101136.56
2022-12-01T18:49:47.053Z,101140.88
2022-12-01T18:52:14.382Z,101140.50
2022-12-01T18:54:41.703Z,101139.13
2022-12-01T18:57:09.145Z,101146.16
2022-12-01T18:59:36.417Z,101140.81
2022-12-01T19:02:04.144Z,101144.09
2022-12-01T19:04:31.528Z,101140.09
2022-12-01T19:06:58.904Z,101145.84
2022-12-01T19:09:26.252Z,101147.75
2022-12-01T19:12:00.576Z,101148.00
2022-12-01T19:14:28.502Z,101138.41
2022-12-01T19:16:59.140Z,101146.31
2022-12-01T19:19:26.571Z,101136.34
2022-12-01T19:21:54.134Z,101148.00
2022-12-01T19:24:21.575Z,101142.78
2022-12-01T19:26:49.026Z,101145.63
2022-12-01T19:29:16.527Z,101142.50
2022-12-01T19:31:43.987Z,101144.78
2022-12-01T19:34:11.344Z,101155.81
2022-12-01T19:36:38.717Z,101153.91
2022-12-01T19:39:07.829Z,101152.53
2022-12-01T19:41:38.531Z,101154.75
2022-12-01T19:44:06.181Z,101160.09
2022-12-01T19:46:33.597Z,101158.25
2022-12-01T19:49:01.743Z,101152.03
2022-12-01T19:51:34.927Z,101163.06
2022-12-01T19:54:07.642Z,101166.81
2022-12-01T19:56:35.018Z,101159.72
2022-12-01T19:59:02.591Z,101161.91
2022-12-01T20:01:30.154Z,101162.81
2022-12-01T20:03:57.657Z,101160.16
2022-12-01T20:06:28.253Z,101161.63
2022-12-01T20:08:58.253Z,101165.13
2022-12-01T20:11:26.447Z,101166.72
2022-12-01T20:13:53.981Z,101166.22
2022-12-01T20:16:23.566Z,101160.56
2022-12-01T20:18:51.731Z,101167.84
2022-12-01T20:21:20.574Z,101170.19
2022-12-01T20:23:54.006Z,101168.69
2022-12-01T20:26:24.909Z,101175.78
2022-12-01T20:29:01.635Z,101182.81
2022-12-01T20:31:31.024Z,101183.94
2022-12-01T20:34:01.473Z,101176.38
2022-12-01T20:36:29.369Z,101180.69
2022-12-01T20:38:56.941Z,101185.41
2022-12-01T20:41:24.338Z,101177.56
2022-12-01T20:43:53.509Z,101185.56
2022-12-01T20:46:21.089Z,101191.41
2022-12-01T20:48:48.474Z,101192.63
2022-12-01T20:51:16.004Z,101186.22
2022-12-01T20:53:59.611Z,101194.38
2022-12-01T20:56:32.069Z,101197.41
2022-12-01T20:59:00.017Z,101201.47
2022-12-01T21:01:27.606Z,101202.03
2022-12-01T21:03:55.279Z,101205.28
2022-12-01T21:06:22.704Z,101202.63
2022-12-01T21:08:51.054Z,101208.19
2022-12-01T21:11:19.005Z,101209.25
2022-12-01T21:13:47.038Z,101211.75
2022-12-01T21:16:27.738Z,101215.28
2022-12-01T21:19:06.228Z,101218.41
2022-12-01T21:21:38.223Z,101217.56
2022-12-01T21:24:08.469Z,101218.16
2022-12-01T21:26:46.734Z,101209.00
2022-12-01T21:29:25.381Z,101213.31
2022-12-01T21:32:01.686Z,101208.47
2022-12-01T21:34:29.289Z,101205.78
2022-12-01T21:37:02.041Z,101209.50
2022-12-01T21:39:30.496Z,101211.19
2022-12-01T21:42:13.921Z,101210.91
2022-12-01T21:44:41.454Z,101215.50
2022-12-01T21:47:21.557Z,101213.41
2022-12-01T21:49:56.068Z,101213.47
2022-12-01T21:52:29.918Z,101210.34
2022-12-01T21:55:09.234Z,101207.78
2022-12-01T21:57:43.131Z,101209.72
2022-12-01T22:00:26.681Z,101208.59
2022-12-01T22:03:09.310Z,101204.56
2022-12-01T22:05:40.899Z,101207.19
2022-12-01T22:08:14.295Z,101209.59
2022-12-01T22:10:50.765Z,101202.81
2022-12-01T22:13:19.849Z,101207.34
2022-12-01T22:15:47.213Z,101212.25
2022-12-01T22:18:22.774Z,101206.38
2022-12-01T22:20:50.677Z,101206.81
2022-12-01T22:23:19.130Z,101209.72
2022-12-01T22:25:48.027Z,101214.06
2022-12-01T22:28:22.119Z,101210.25
2022-12-01T22:30:49.530Z,101216.16
2022-12-01T22:33:21.536Z,101211.03
2022-12-01T22:35:52.841Z,101211.16
2022-12-01T22:38:39.823Z,101213.06
2022-12-01T22:41:14.396Z,101209.53
2022-12-01T22:43:47.871Z,101206.97
2022-12-01T22:46:22.368Z,101197.75
2022-12-01T22:49:19.562Z,101202.06
2022-12-01T22:52:05.383Z,101207.50
2022-12-01T22:54:37.943Z,101211.88
2022-12-01T22:57:13.148Z,101207.72
2022-12-01T22:59:43.230Z,101211.97
2022-12-01T23:02:21.126Z,101206.38
2022-12-01T23:04:52.588Z,101206.81
2022-12-01T23:07:26.511Z,101211.66
2022-12-01T23:10:31.534Z,101214.56
2022-12-01T23:13:08.534Z,101212.25
2022-12-01T23:15:39.136Z,101206.13
2022-12-01T23:18:12.435Z,101211.69
2022-12-01T23:20:41.053Z,101218.72
2022-12-01T23:23:20.653Z,101202.75
2022-12-01T23:25:50.116Z,101217.34
2022-12-01T23:28:18.255Z,101210.41
2022-12-01T23:30:47.608Z,101211.75
2022-12-01T23:33:27.884Z,101204.94
2022-12-01T23:36:21.639Z,101205.56
2022-12-01T23:38:52.911Z,101205.28
2022-12-01T23:41:32.958Z,101203.31
2022-12-01T23:44:04.105Z,101206.47
2022-12-01T23:46:32.662Z,101201.09
2022-12-01T23:49:03.781Z,101205.53
2022-12-01T23:51:35.262Z,101205.13
2022-12-01T23:54:10.972Z,101200.91
2022-12-01T23:56:38.580Z,101202.47
2022-12-01T23:59:12.987Z,101196.59
